sensor_id;sensor_type;location;lat;lon;timestamp;P1;durP1;ratioP1;P2;durP2;ratioP2
42864;SDS011;28511;42.680;23.252;2023-04-01T00:00:29;0.70;;;0.60;;
42864;SDS011;28511;42.680;23.252;2023-04-01T00:02:54;1.65;;;1.08;;
42864;SDS011;28511;42.680;23.252;2023-04-01T00:05:19;1.17;;;0.90;;
42864;SDS011;28511;42.680;23.252;2023-04-01T00:07:45;1.67;;;1.10;;
42864;SDS011;28511;42.680;23.252;2023-04-01T00:10:11;1.60;;;1.35;;
42864;SDS011;28511;42.680;23.252;2023-04-01T00:12:37;1.13;;;0.93;;
42864;SDS011;28511;42.680;23.252;2023-04-01T00:15:03;7.75;;;3.63;;
42864;SDS011;28511;42.680;23.252;2023-04-01T00:17:29;6.32;;;2.95;;
42864;SDS011;28511;42.680;23.252;2023-04-01T00:19:54;3.75;;;2.85;;
42864;SDS011;28511;42.680;23.252;2023-04-01T00:22:20;5.35;;;3.30;;
42864;SDS011;28511;42.680;23.252;2023-04-01T00:24:47;8.98;;;3.55;;
42864;SDS011;28511;42.680;23.252;2023-04-01T00:27:12;6.88;;;3.95;;
42864;SDS011;28511;42.680;23.252;2023-04-01T00:29:37;14.30;;;4.43;;
42864;SDS011;28511;42.680;23.252;2023-04-01T00:32:03;8.13;;;4.00;;
42864;SDS011;28511;42.680;23.252;2023-04-01T00:34:28;5.72;;;3.72;;
42864;SDS011;28511;42.680;23.252;2023-04-01T00:36:53;10.52;;;4.75;;
42864;SDS011;28511;42.680;23.252;2023-04-01T00:39:19;12.55;;;4.82;;
42864;SDS011;28511;42.680;23.252;2023-04-01T00:41:45;7.30;;;3.80;;
42864;SDS011;28511;42.680;23.252;2023-04-01T00:44:14;7.00;;;4.03;;
42864;SDS011;28511;42.680;23.252;2023-04-01T00:46:40;6.90;;;4.83;;
42864;SDS011;28511;42.680;23.252;2023-04-01T00:49:05;6.28;;;3.83;;
42864;SDS011;28511;42.680;23.252;2023-04-01T00:51:30;3.40;;;2.77;;
42864;SDS011;28511;42.680;23.252;2023-04-01T00:53:57;6.15;;;3.95;;
42864;SDS011;28511;42.680;23.252;2023-04-01T00:56:27;8.70;;;4.40;;
42864;SDS011;28511;42.680;23.252;2023-04-01T00:58:59;7.47;;;4.93;;
42864;SDS011;28511;42.680;23.252;2023-04-01T01:01:26;9.55;;;4.10;;
42864;SDS011;28511;42.680;23.252;2023-04-01T01:03:52;8.23;;;4.40;;
42864;SDS011;28511;42.680;23.252;2023-04-01T01:16:53;9.18;;;3.65;;
42864;SDS011;28511;42.680;23.252;2023-04-01T01:19:33;8.65;;;3.78;;
42864;SDS011;28511;42.680;23.252;2023-04-01T01:24:41;9.93;;;4.45;;
42864;SDS011;28511;42.680;23.252;2023-04-01T01:27:11;8.00;;;2.63;;
42864;SDS011;28511;42.680;23.252;2023-04-01T01:29:54;5.95;;;3.42;;
42864;SDS011;28511;42.680;23.252;2023-04-01T01:37:41;1.70;;;1.40;;
42864;SDS011;28511;42.680;23.252;2023-04-01T01:40:07;1.05;;;1.05;;
42864;SDS011;28511;42.680;23.252;2023-04-01T01:42:35;7.18;;;3.72;;
42864;SDS011;28511;42.680;23.252;2023-04-01T01:45:02;2.25;;;1.98;;
42864;SDS011;28511;42.680;23.252;2023-04-01T01:47:28;1.20;;;1.10;;
42864;SDS011;28511;42.680;23.252;2023-04-01T01:49:55;4.15;;;2.78;;
42864;SDS011;28511;42.680;23.252;2023-04-01T01:52:23;3.55;;;2.22;;
42864;SDS011;28511;42.680;23.252;2023-04-01T01:54:50;1.98;;;1.65;;
42864;SDS011;28511;42.680;23.252;2023-04-01T01:57:15;1.88;;;1.75;;
42864;SDS011;28511;42.680;23.252;2023-04-01T01:59:42;2.75;;;1.83;;
42864;SDS011;28511;42.680;23.252;2023-04-01T02:02:08;1.55;;;1.45;;
42864;SDS011;28511;42.680;23.252;2023-04-01T02:04:36;4.90;;;2.50;;
42864;SDS011;28511;42.680;23.252;2023-04-01T02:07:04;3.73;;;2.10;;
42864;SDS011;28511;42.680;23.252;2023-04-01T02:09:32;2.20;;;1.40;;
42864;SDS011;28511;42.680;23.252;2023-04-01T02:12:00;2.05;;;1.40;;
42864;SDS011;28511;42.680;23.252;2023-04-01T02:14:33;2.33;;;1.95;;
42864;SDS011;28511;42.680;23.252;2023-04-01T02:17:05;9.80;;;2.42;;
42864;SDS011;28511;42.680;23.252;2023-04-01T02:19:33;2.78;;;1.83;;
42864;SDS011;28511;42.680;23.252;2023-04-01T02:22:01;3.28;;;1.77;;
42864;SDS011;28511;42.680;23.252;2023-04-01T02:24:28;2.70;;;1.55;;
42864;SDS011;28511;42.680;23.252;2023-04-01T02:26:55;4.55;;;1.98;;
42864;SDS011;28511;42.680;23.252;2023-04-01T02:29:20;5.15;;;1.73;;
42864;SDS011;28511;42.680;23.252;2023-04-01T02:31:46;3.65;;;2.03;;
42864;SDS011;28511;42.680;23.252;2023-04-01T02:34:12;3.15;;;2.40;;
42864;SDS011;28511;42.680;23.252;2023-04-01T02:36:37;7.05;;;2.42;;
42864;SDS011;28511;42.680;23.252;2023-04-01T02:39:03;11.88;;;2.50;;
42864;SDS011;28511;42.680;23.252;2023-04-01T02:41:29;2.50;;;2.20;;
42864;SDS011;28511;42.680;23.252;2023-04-01T02:43:55;2.40;;;1.88;;
42864;SDS011;28511;42.680;23.252;2023-04-01T02:46:22;6.65;;;2.03;;
42864;SDS011;28511;42.680;23.252;2023-04-01T02:48:47;4.53;;;1.60;;
42864;SDS011;28511;42.680;23.252;2023-04-01T02:51:12;6.75;;;3.30;;
42864;SDS011;28511;42.680;23.252;2023-04-01T02:53:38;3.15;;;2.83;;
42864;SDS011;28511;42.680;23.252;2023-04-01T02:56:03;3.17;;;1.77;;
42864;SDS011;28511;42.680;23.252;2023-04-01T02:58:29;1.98;;;1.40;;
42864;SDS011;28511;42.680;23.252;2023-04-01T03:00:54;2.35;;;1.77;;
42864;SDS011;28511;42.680;23.252;2023-04-01T03:03:19;3.97;;;1.10;;
42864;SDS011;28511;42.680;23.252;2023-04-01T03:05:45;2.53;;;0.88;;
42864;SDS011;28511;42.680;23.252;2023-04-01T03:08:10;1.40;;;1.25;;
42864;SDS011;28511;42.680;23.252;2023-04-01T03:10:36;0.40;;;0.40;;
42864;SDS011;28511;42.680;23.252;2023-04-01T03:13:02;0.77;;;0.77;;
42864;SDS011;28511;42.680;23.252;2023-04-01T03:15:27;0.47;;;0.47;;
42864;SDS011;28511;42.680;23.252;2023-04-01T03:17:52;0.75;;;0.52;;
42864;SDS011;28511;42.680;23.252;2023-04-01T03:20:17;1.17;;;0.95;;
42864;SDS011;28511;42.680;23.252;2023-04-01T03:22:43;0.40;;;0.40;;
42864;SDS011;28511;42.680;23.252;2023-04-01T03:25:08;0.80;;;0.73;;
42864;SDS011;28511;42.680;23.252;2023-04-01T03:27:34;0.40;;;0.40;;
42864;SDS011;28511;42.680;23.252;2023-04-01T03:30:00;0.68;;;0.50;;
42864;SDS011;28511;42.680;23.252;2023-04-01T03:32:25;1.00;;;0.57;;
42864;SDS011;28511;42.680;23.252;2023-04-01T03:34:52;1.08;;;0.70;;
42864;SDS011;28511;42.680;23.252;2023-04-01T03:37:17;0.60;;;0.60;;
42864;SDS011;28511;42.680;23.252;2023-04-01T03:39:42;0.60;;;0.60;;
42864;SDS011;28511;42.680;23.252;2023-04-01T03:42:08;0.53;;;0.53;;
42864;SDS011;28511;42.680;23.252;2023-04-01T03:44:33;0.75;;;0.75;;
42864;SDS011;28511;42.680;23.252;2023-04-01T03:46:59;0.85;;;0.63;;
42864;SDS011;28511;42.680;23.252;2023-04-01T03:49:24;0.50;;;0.50;;
42864;SDS011;28511;42.680;23.252;2023-04-01T03:51:50;0.70;;;0.70;;
42864;SDS011;28511;42.680;23.252;2023-04-01T03:54:15;1.05;;;0.63;;
42864;SDS011;28511;42.680;23.252;2023-04-01T03:56:40;0.75;;;0.65;;
42864;SDS011;28511;42.680;23.252;2023-04-01T03:59:06;0.40;;;0.40;;
42864;SDS011;28511;42.680;23.252;2023-04-01T04:01:32;1.08;;;0.75;;
42864;SDS011;28511;42.680;23.252;2023-04-01T04:03:57;3.47;;;2.63;;
42864;SDS011;28511;42.680;23.252;2023-04-01T04:06:23;1.20;;;1.10;;
42864;SDS011;28511;42.680;23.252;2023-04-01T04:08:48;2.20;;;1.45;;
42864;SDS011;28511;42.680;23.252;2023-04-01T04:11:14;1.52;;;1.42;;
42864;SDS011;28511;42.680;23.252;2023-04-01T04:13:39;2.40;;;1.02;;
42864;SDS011;28511;42.680;23.252;2023-04-01T04:16:05;3.53;;;2.47;;
42864;SDS011;28511;42.680;23.252;2023-04-01T04:18:30;12.90;;;5.00;;
42864;SDS011;28511;42.680;23.252;2023-04-01T04:20:55;3.85;;;2.15;;
42864;SDS011;28511;42.680;23.252;2023-04-01T04:23:21;2.95;;;2.20;;
42864;SDS011;28511;42.680;23.252;2023-04-01T04:25:53;6.70;;;2.70;;
42864;SDS011;28511;42.680;23.252;2023-04-01T04:28:19;2.05;;;1.63;;
42864;SDS011;28511;42.680;23.252;2023-04-01T04:30:44;2.42;;;1.60;;
42864;SDS011;28511;42.680;23.252;2023-04-01T04:33:10;2.20;;;2.00;;
42864;SDS011;28511;42.680;23.252;2023-04-01T04:35:35;1.73;;;1.60;;
42864;SDS011;28511;42.680;23.252;2023-04-01T04:38:00;1.83;;;1.33;;
42864;SDS011;28511;42.680;23.252;2023-04-01T04:40:25;2.95;;;2.65;;
42864;SDS011;28511;42.680;23.252;2023-04-01T04:42:51;5.20;;;2.40;;
42864;SDS011;28511;42.680;23.252;2023-04-01T04:45:16;6.53;;;2.80;;
42864;SDS011;28511;42.680;23.252;2023-04-01T04:47:41;3.05;;;2.17;;
42864;SDS011;28511;42.680;23.252;2023-04-01T04:50:07;1.92;;;1.80;;
42864;SDS011;28511;42.680;23.252;2023-04-01T04:52:32;4.15;;;2.38;;
42864;SDS011;28511;42.680;23.252;2023-04-01T04:54:57;3.63;;;2.58;;
42864;SDS011;28511;42.680;23.252;2023-04-01T04:57:23;5.57;;;2.75;;
42864;SDS011;28511;42.680;23.252;2023-04-01T04:59:48;6.10;;;3.38;;
42864;SDS011;28511;42.680;23.252;2023-04-01T05:02:13;4.17;;;2.83;;
42864;SDS011;28511;42.680;23.252;2023-04-01T05:04:38;2.53;;;2.33;;
42864;SDS011;28511;42.680;23.252;2023-04-01T05:07:04;2.20;;;1.97;;
42864;SDS011;28511;42.680;23.252;2023-04-01T05:09:29;4.55;;;2.70;;
42864;SDS011;28511;42.680;23.252;2023-04-01T05:11:54;6.97;;;2.78;;
42864;SDS011;28511;42.680;23.252;2023-04-01T05:14:20;3.20;;;1.98;;
42864;SDS011;28511;42.680;23.252;2023-04-01T05:16:45;4.00;;;2.70;;
42864;SDS011;28511;42.680;23.252;2023-04-01T05:19:10;3.40;;;2.00;;
42864;SDS011;28511;42.680;23.252;2023-04-01T05:21:36;4.13;;;1.83;;
42864;SDS011;28511;42.680;23.252;2023-04-01T05:24:01;2.67;;;2.15;;
42864;SDS011;28511;42.680;23.252;2023-04-01T05:26:26;4.03;;;2.45;;
42864;SDS011;28511;42.680;23.252;2023-04-01T05:28:51;4.78;;;2.83;;
42864;SDS011;28511;42.680;23.252;2023-04-01T05:31:17;5.28;;;2.33;;
42864;SDS011;28511;42.680;23.252;2023-04-01T05:33:42;5.18;;;2.97;;
42864;SDS011;28511;42.680;23.252;2023-04-01T05:36:11;1.90;;;1.80;;
42864;SDS011;28511;42.680;23.252;2023-04-01T05:38:37;3.03;;;2.00;;
42864;SDS011;28511;42.680;23.252;2023-04-01T05:41:03;4.63;;;2.03;;
42864;SDS011;28511;42.680;23.252;2023-04-01T05:43:28;6.53;;;1.40;;
42864;SDS011;28511;42.680;23.252;2023-04-01T05:45:55;3.72;;;1.83;;
42864;SDS011;28511;42.680;23.252;2023-04-01T05:48:20;4.35;;;2.50;;
42864;SDS011;28511;42.680;23.252;2023-04-01T05:50:45;3.75;;;2.03;;
42864;SDS011;28511;42.680;23.252;2023-04-01T05:53:11;3.75;;;1.98;;
42864;SDS011;28511;42.680;23.252;2023-04-01T05:55:36;5.28;;;2.33;;
42864;SDS011;28511;42.680;23.252;2023-04-01T05:58:01;7.13;;;3.53;;
42864;SDS011;28511;42.680;23.252;2023-04-01T06:00:27;3.15;;;1.90;;
42864;SDS011;28511;42.680;23.252;2023-04-01T06:02:52;3.90;;;1.50;;
42864;SDS011;28511;42.680;23.252;2023-04-01T06:07:42;2.38;;;1.70;;
42864;SDS011;28511;42.680;23.252;2023-04-01T06:10:18;2.53;;;1.90;;
42864;SDS011;28511;42.680;23.252;2023-04-01T06:23:28;8.10;;;2.40;;
42864;SDS011;28511;42.680;23.252;2023-04-01T06:34:44;2.17;;;1.33;;
42864;SDS011;28511;42.680;23.252;2023-04-01T06:37:22;4.05;;;2.33;;
42864;SDS011;28511;42.680;23.252;2023-04-01T06:50:17;1.52;;;1.25;;
42864;SDS011;28511;42.680;23.252;2023-04-01T06:55:17;1.85;;;1.33;;
42864;SDS011;28511;42.680;23.252;2023-04-01T06:57:49;2.13;;;1.48;;
42864;SDS011;28511;42.680;23.252;2023-04-01T07:00:49;7.93;;;2.53;;
42864;SDS011;28511;42.680;23.252;2023-04-01T07:03:11;2.35;;;1.33;;
42864;SDS011;28511;42.680;23.252;2023-04-01T07:05:38;1.63;;;1.38;;
42864;SDS011;28511;42.680;23.252;2023-04-01T07:08:06;7.88;;;2.90;;
42864;SDS011;28511;42.680;23.252;2023-04-01T07:13:10;2.03;;;1.35;;
42864;SDS011;28511;42.680;23.252;2023-04-01T07:15:42;7.53;;;2.63;;
42864;SDS011;28511;42.680;23.252;2023-04-01T07:20:35;4.15;;;1.38;;
42864;SDS011;28511;42.680;23.252;2023-04-01T07:23:02;2.85;;;1.50;;
42864;SDS011;28511;42.680;23.252;2023-04-01T07:25:34;2.40;;;1.40;;
42864;SDS011;28511;42.680;23.252;2023-04-01T07:28:02;3.55;;;1.50;;
42864;SDS011;28511;42.680;23.252;2023-04-01T07:30:28;3.00;;;2.20;;
42864;SDS011;28511;42.680;23.252;2023-04-01T07:35:35;2.35;;;1.67;;
42864;SDS011;28511;42.680;23.252;2023-04-01T07:43:23;2.55;;;2.17;;
42864;SDS011;28511;42.680;23.252;2023-04-01T07:48:30;4.57;;;2.58;;
42864;SDS011;28511;42.680;23.252;2023-04-01T07:51:01;3.55;;;2.10;;
42864;SDS011;28511;42.680;23.252;2023-04-01T07:56:01;2.90;;;2.58;;
42864;SDS011;28511;42.680;23.252;2023-04-01T07:58:35;3.75;;;1.90;;
42864;SDS011;28511;42.680;23.252;2023-04-01T08:06:28;3.47;;;2.20;;
42864;SDS011;28511;42.680;23.252;2023-04-01T08:11:35;3.13;;;1.92;;
42864;SDS011;28511;42.680;23.252;2023-04-01T08:14:10;1.90;;;1.77;;
42864;SDS011;28511;42.680;23.252;2023-04-01T08:16:45;4.07;;;2.45;;
42864;SDS011;28511;42.680;23.252;2023-04-01T08:19:45;4.65;;;2.00;;
42864;SDS011;28511;42.680;23.252;2023-04-01T08:22:04;3.47;;;2.08;;
42864;SDS011;28511;42.680;23.252;2023-04-01T08:24:42;2.40;;;1.80;;
42864;SDS011;28511;42.680;23.252;2023-04-01T08:27:31;1.33;;;1.23;;
42864;SDS011;28511;42.680;23.252;2023-04-01T08:30:03;3.13;;;2.10;;
42864;SDS011;28511;42.680;23.252;2023-04-01T08:32:30;7.13;;;2.15;;
42864;SDS011;28511;42.680;23.252;2023-04-01T08:35:02;3.20;;;2.38;;
42864;SDS011;28511;42.680;23.252;2023-04-01T08:37:32;5.50;;;3.20;;
42864;SDS011;28511;42.680;23.252;2023-04-01T08:40:02;5.18;;;2.85;;
42864;SDS011;28511;42.680;23.252;2023-04-01T08:42:49;3.50;;;2.70;;
42864;SDS011;28511;42.680;23.252;2023-04-01T08:45:26;2.92;;;1.55;;
42864;SDS011;28511;42.680;23.252;2023-04-01T08:50:45;7.53;;;2.60;;
42864;SDS011;28511;42.680;23.252;2023-04-01T08:56:03;0.82;;;0.82;;
42864;SDS011;28511;42.680;23.252;2023-04-01T08:58:42;5.85;;;1.73;;
42864;SDS011;28511;42.680;23.252;2023-04-01T09:19:22;3.38;;;1.45;;
42864;SDS011;28511;42.680;23.252;2023-04-01T09:27:03;0.70;;;0.70;;
42864;SDS011;28511;42.680;23.252;2023-04-01T09:32:08;0.77;;;0.77;;
42864;SDS011;28511;42.680;23.252;2023-04-01T09:45:40;1.70;;;1.25;;
42864;SDS011;28511;42.680;23.252;2023-04-01T09:48:11;0.55;;;0.50;;
42864;SDS011;28511;42.680;23.252;2023-04-01T09:50:47;0.98;;;0.60;;
42864;SDS011;28511;42.680;23.252;2023-04-01T10:29:43;1.23;;;0.45;;
42864;SDS011;28511;42.680;23.252;2023-04-01T10:40:23;3.35;;;0.65;;
42864;SDS011;28511;42.680;23.252;2023-04-01T10:48:12;0.28;;;0.28;;
42864;SDS011;28511;42.680;23.252;2023-04-01T11:01:00;2.97;;;0.90;;
42864;SDS011;28511;42.680;23.252;2023-04-01T11:24:33;2.08;;;0.75;;
42864;SDS011;28511;42.680;23.252;2023-04-01T11:29:53;0.47;;;0.47;;
42864;SDS011;28511;42.680;23.252;2023-04-01T11:35:02;2.05;;;1.15;;
42864;SDS011;28511;42.680;23.252;2023-04-01T11:37:32;0.55;;;0.55;;
42864;SDS011;28511;42.680;23.252;2023-04-01T11:50:21;0.60;;;0.60;;
42864;SDS011;28511;42.680;23.252;2023-04-01T11:57:53;1.33;;;1.17;;
42864;SDS011;28511;42.680;23.252;2023-04-01T12:08:44;1.73;;;0.50;;
42864;SDS011;28511;42.680;23.252;2023-04-01T12:13:32;1.13;;;0.90;;
42864;SDS011;28511;42.680;23.252;2023-04-01T12:40:03;5.15;;;1.38;;
42864;SDS011;28511;42.680;23.252;2023-04-01T12:53:09;0.45;;;0.45;;
42864;SDS011;28511;42.680;23.252;2023-04-01T12:55:39;0.55;;;0.55;;
42864;SDS011;28511;42.680;23.252;2023-04-01T13:03:20;1.80;;;1.70;;
42864;SDS011;28511;42.680;23.252;2023-04-01T13:09:06;0.47;;;0.47;;
42864;SDS011;28511;42.680;23.252;2023-04-01T13:16:45;1.50;;;0.88;;
42864;SDS011;28511;42.680;23.252;2023-04-01T13:19:47;0.63;;;0.63;;
42864;SDS011;28511;42.680;23.252;2023-04-01T13:56:03;1.50;;;0.40;;
42864;SDS011;28511;42.680;23.252;2023-04-01T14:11:39;0.73;;;0.70;;
42864;SDS011;28511;42.680;23.252;2023-04-01T14:29:30;0.30;;;0.30;;
42864;SDS011;28511;42.680;23.252;2023-04-01T14:42:28;1.65;;;0.50;;
42864;SDS011;28511;42.680;23.252;2023-04-01T14:50:18;0.85;;;0.50;;
42864;SDS011;28511;42.680;23.252;2023-04-01T14:55:32;1.85;;;1.35;;
42864;SDS011;28511;42.680;23.252;2023-04-01T14:58:18;0.40;;;0.40;;
42864;SDS011;28511;42.680;23.252;2023-04-01T15:00:48;0.17;;;0.17;;
42864;SDS011;28511;42.680;23.252;2023-04-01T15:08:28;0.40;;;0.40;;
42864;SDS011;28511;42.680;23.252;2023-04-01T15:13:35;0.50;;;0.50;;
42864;SDS011;28511;42.680;23.252;2023-04-01T15:24:06;2.72;;;1.58;;
42864;SDS011;28511;42.680;23.252;2023-04-01T15:55:31;0.47;;;0.47;;
42864;SDS011;28511;42.680;23.252;2023-04-01T16:00:31;0.30;;;0.30;;
42864;SDS011;28511;42.680;23.252;2023-04-01T16:11:14;0.38;;;0.35;;
42864;SDS011;28511;42.680;23.252;2023-04-01T16:13:48;0.75;;;0.75;;
42864;SDS011;28511;42.680;23.252;2023-04-01T16:24:14;1.75;;;1.38;;
42864;SDS011;28511;42.680;23.252;2023-04-01T16:31:43;0.30;;;0.30;;
42864;SDS011;28511;42.680;23.252;2023-04-01T16:34:14;0.65;;;0.65;;
42864;SDS011;28511;42.680;23.252;2023-04-01T16:37:00;0.20;;;0.20;;
42864;SDS011;28511;42.680;23.252;2023-04-01T16:44:23;0.50;;;0.50;;
42864;SDS011;28511;42.680;23.252;2023-04-01T16:59:44;0.30;;;0.30;;
42864;SDS011;28511;42.680;23.252;2023-04-01T17:02:12;0.82;;;0.63;;
42864;SDS011;28511;42.680;23.252;2023-04-01T17:09:58;0.68;;;0.68;;
42864;SDS011;28511;42.680;23.252;2023-04-01T17:17:54;3.78;;;0.50;;
42864;SDS011;28511;42.680;23.252;2023-04-01T17:20:26;0.50;;;0.50;;
42864;SDS011;28511;42.680;23.252;2023-04-01T17:22:54;0.50;;;0.50;;
42864;SDS011;28511;42.680;23.252;2023-04-01T17:25:25;0.45;;;0.45;;
42864;SDS011;28511;42.680;23.252;2023-04-01T17:30:34;0.65;;;0.65;;
42864;SDS011;28511;42.680;23.252;2023-04-01T17:41:03;0.60;;;0.60;;
42864;SDS011;28511;42.680;23.252;2023-04-01T17:43:47;0.95;;;0.95;;
42864;SDS011;28511;42.680;23.252;2023-04-01T17:46:23;0.98;;;0.63;;
42864;SDS011;28511;42.680;23.252;2023-04-01T17:51:35;0.45;;;0.45;;
42864;SDS011;28511;42.680;23.252;2023-04-01T17:54:18;1.88;;;1.42;;
42864;SDS011;28511;42.680;23.252;2023-04-01T17:59:31;1.20;;;1.17;;
42864;SDS011;28511;42.680;23.252;2023-04-01T18:02:19;0.65;;;0.45;;
42864;SDS011;28511;42.680;23.252;2023-04-01T18:05:05;3.78;;;2.65;;
42864;SDS011;28511;42.680;23.252;2023-04-01T18:18:43;0.85;;;0.60;;
42864;SDS011;28511;42.680;23.252;2023-04-01T18:24:16;2.20;;;1.08;;
42864;SDS011;28511;42.680;23.252;2023-04-01T18:26:44;0.70;;;0.70;;
42864;SDS011;28511;42.680;23.252;2023-04-01T18:31:40;2.43;;;1.03;;
42864;SDS011;28511;42.680;23.252;2023-04-01T18:36:46;1.15;;;0.80;;
42864;SDS011;28511;42.680;23.252;2023-04-01T18:39:23;1.38;;;0.60;;
42864;SDS011;28511;42.680;23.252;2023-04-01T18:42:10;0.45;;;0.45;;
42864;SDS011;28511;42.680;23.252;2023-04-01T18:44:45;1.35;;;0.85;;
42864;SDS011;28511;42.680;23.252;2023-04-01T18:52:42;1.23;;;0.75;;
42864;SDS011;28511;42.680;23.252;2023-04-01T18:57:46;1.48;;;1.38;;
42864;SDS011;28511;42.680;23.252;2023-04-01T19:02:41;0.40;;;0.40;;
42864;SDS011;28511;42.680;23.252;2023-04-01T19:05:16;1.15;;;0.70;;
42864;SDS011;28511;42.680;23.252;2023-04-01T19:07:45;1.02;;;1.02;;
42864;SDS011;28511;42.680;23.252;2023-04-01T19:10:19;0.45;;;0.45;;
42864;SDS011;28511;42.680;23.252;2023-04-01T19:23:31;0.40;;;0.40;;
42864;SDS011;28511;42.680;23.252;2023-04-01T19:26:00;1.23;;;0.70;;
42864;SDS011;28511;42.680;23.252;2023-04-01T19:31:33;1.45;;;0.93;;
42864;SDS011;28511;42.680;23.252;2023-04-01T19:34:41;0.57;;;0.57;;
42864;SDS011;28511;42.680;23.252;2023-04-01T19:36:49;0.45;;;0.43;;
42864;SDS011;28511;42.680;23.252;2023-04-01T19:44:43;0.52;;;0.52;;
42864;SDS011;28511;42.680;23.252;2023-04-01T19:49:40;0.67;;;0.67;;
42864;SDS011;28511;42.680;23.252;2023-04-01T20:00:02;0.80;;;0.80;;
42864;SDS011;28511;42.680;23.252;2023-04-01T20:05:04;1.10;;;0.82;;
42864;SDS011;28511;42.680;23.252;2023-04-01T20:07:42;0.77;;;0.77;;
42864;SDS011;28511;42.680;23.252;2023-04-01T20:10:42;0.47;;;0.47;;
42864;SDS011;28511;42.680;23.252;2023-04-01T20:15:31;1.02;;;0.40;;
42864;SDS011;28511;42.680;23.252;2023-04-01T20:17:59;0.95;;;0.82;;
42864;SDS011;28511;42.680;23.252;2023-04-01T20:20:26;2.50;;;0.43;;
42864;SDS011;28511;42.680;23.252;2023-04-01T20:23:05;0.60;;;0.60;;
42864;SDS011;28511;42.680;23.252;2023-04-01T20:25:32;0.80;;;0.80;;
42864;SDS011;28511;42.680;23.252;2023-04-01T20:28:00;0.40;;;0.40;;
42864;SDS011;28511;42.680;23.252;2023-04-01T20:38:19;1.60;;;0.57;;
42864;SDS011;28511;42.680;23.252;2023-04-01T20:40:50;0.70;;;0.65;;
42864;SDS011;28511;42.680;23.252;2023-04-01T20:46:22;0.60;;;0.50;;
42864;SDS011;28511;42.680;23.252;2023-04-01T20:51:15;0.40;;;0.40;;
42864;SDS011;28511;42.680;23.252;2023-04-01T20:53:51;0.47;;;0.47;;
42864;SDS011;28511;42.680;23.252;2023-04-01T20:56:30;0.63;;;0.40;;
42864;SDS011;28511;42.680;23.252;2023-04-01T21:04:25;0.40;;;0.40;;
42864;SDS011;28511;42.680;23.252;2023-04-01T21:22:55;0.28;;;0.28;;
42864;SDS011;28511;42.680;23.252;2023-04-01T21:25:27;0.70;;;0.70;;
42864;SDS011;28511;42.680;23.252;2023-04-01T21:43:30;0.30;;;0.30;;
42864;SDS011;28511;42.680;23.252;2023-04-01T21:57:23;0.55;;;0.55;;
42864;SDS011;28511;42.680;23.252;2023-04-01T21:59:58;0.22;;;0.22;;
42864;SDS011;28511;42.680;23.252;2023-04-01T22:05:28;0.90;;;0.60;;
42864;SDS011;28511;42.680;23.252;2023-04-01T22:10:36;0.75;;;0.50;;
42864;SDS011;28511;42.680;23.252;2023-04-01T22:18:33;0.30;;;0.30;;
42864;SDS011;28511;42.680;23.252;2023-04-01T22:21:20;0.30;;;0.30;;
42864;SDS011;28511;42.680;23.252;2023-04-01T22:23:55;0.82;;;0.70;;
42864;SDS011;28511;42.680;23.252;2023-04-01T22:31:13;0.83;;;0.40;;
42864;SDS011;28511;42.680;23.252;2023-04-01T22:36:15;0.30;;;0.30;;
42864;SDS011;28511;42.680;23.252;2023-04-01T22:43:39;1.48;;;0.85;;
42864;SDS011;28511;42.680;23.252;2023-04-01T22:46:11;0.38;;;0.38;;
42864;SDS011;28511;42.680;23.252;2023-04-01T22:48:42;0.43;;;0.43;;
42864;SDS011;28511;42.680;23.252;2023-04-01T22:51:17;0.30;;;0.30;;
42864;SDS011;28511;42.680;23.252;2023-04-01T22:58:55;0.30;;;0.30;;
42864;SDS011;28511;42.680;23.252;2023-04-01T23:01:25;0.82;;;0.82;;
42864;SDS011;28511;42.680;23.252;2023-04-01T23:03:54;0.68;;;0.68;;
42864;SDS011;28511;42.680;23.252;2023-04-01T23:06:26;0.20;;;0.20;;
42864;SDS011;28511;42.680;23.252;2023-04-01T23:11:38;0.20;;;0.20;;
42864;SDS011;28511;42.680;23.252;2023-04-01T23:16:54;0.30;;;0.30;;
42864;SDS011;28511;42.680;23.252;2023-04-01T23:19:37;0.73;;;0.68;;
42864;SDS011;28511;42.680;23.252;2023-04-01T23:22:26;1.58;;;0.40;;
42864;SDS011;28511;42.680;23.252;2023-04-01T23:27:40;0.30;;;0.30;;
42864;SDS011;28511;42.680;23.252;2023-04-01T23:32:52;0.28;;;0.28;;
42864;SDS011;28511;42.680;23.252;2023-04-01T23:35:18;0.20;;;0.20;;
42864;SDS011;28511;42.680;23.252;2023-04-01T23:37:43;0.63;;;0.63;;
42864;SDS011;28511;42.680;23.252;2023-04-01T23:40:10;0.40;;;0.40;;
42864;SDS011;28511;42.680;23.252;2023-04-01T23:42:40;0.45;;;0.45;;
42864;SDS011;28511;42.680;23.252;2023-04-01T23:45:13;0.30;;;0.30;;
42864;SDS011;28511;42.680;23.252;2023-04-01T23:47:42;0.20;;;0.20;;
42864;SDS011;28511;42.680;23.252;2023-04-01T23:50:17;0.20;;;0.20;;
42864;SDS011;28511;42.680;23.252;2023-04-01T23:52:46;0.20;;;0.20;;
42864;SDS011;28511;42.680;23.252;2023-04-01T23:57:43;0.20;;;0.20;;
